sensor_id;sensor_type;location;lat;lon;timestamp;temperature;humidity
16198;DHT22;8206;51.440;6.914;2023-06-22T00:02:00;21.70;99.90
16198;DHT22;8206;51.440;6.914;2023-06-22T00:04:27;21.60;99.90
16198;DHT22;8206;51.440;6.914;2023-06-22T00:06:54;21.50;99.90
16198;DHT22;8206;51.440;6.914;2023-06-22T00:09:21;21.50;99.90
16198;DHT22;8206;51.440;6.914;2023-06-22T00:11:49;21.50;99.90
16198;DHT22;8206;51.440;6.914;2023-06-22T00:14:15;21.50;99.90
16198;DHT22;8206;51.440;6.914;2023-06-22T00:16:42;21.50;99.90
16198;DHT22;8206;51.440;6.914;2023-06-22T00:19:09;21.50;99.90
16198;DHT22;8206;51.440;6.914;2023-06-22T00:21:37;21.50;99.90
16198;DHT22;8206;51.440;6.914;2023-06-22T00:24:04;21.50;99.90
16198;DHT22;8206;51.440;6.914;2023-06-22T00:26:31;21.50;99.90
16198;DHT22;8206;51.440;6.914;2023-06-22T00:28:59;21.40;99.90
16198;DHT22;8206;51.440;6.914;2023-06-22T00:31:26;21.40;99.90
16198;DHT22;8206;51.440;6.914;2023-06-22T00:33:53;21.30;99.90
16198;DHT22;8206;51.440;6.914;2023-06-22T00:36:19;21.20;99.90
16198;DHT22;8206;51.440;6.914;2023-06-22T00:38:46;21.20;99.90
16198;DHT22;8206;51.440;6.914;2023-06-22T00:41:16;21.10;99.90
16198;DHT22;8206;51.440;6.914;2023-06-22T00:43:42;21.10;99.90
16198;DHT22;8206;51.440;6.914;2023-06-22T00:46:11;21.10;99.90
16198;DHT22;8206;51.440;6.914;2023-06-22T00:48:38;21.10;99.90
16198;DHT22;8206;51.440;6.914;2023-06-22T00:51:07;21.10;99.90
16198;DHT22;8206;51.440;6.914;2023-06-22T00:53:34;21.00;99.90
16198;DHT22;8206;51.440;6.914;2023-06-22T00:56:03;21.00;99.90
16198;DHT22;8206;51.440;6.914;2023-06-22T00:58:31;21.00;99.90
16198;DHT22;8206;51.440;6.914;2023-06-22T01:00:58;21.00;99.90
16198;DHT22;8206;51.440;6.914;2023-06-22T01:03:27;20.90;99.90
16198;DHT22;8206;51.440;6.914;2023-06-22T01:05:59;20.90;99.90
16198;DHT22;8206;51.440;6.914;2023-06-22T01:08:33;20.80;99.90
16198;DHT22;8206;51.440;6.914;2023-06-22T01:11:08;20.90;99.90
16198;DHT22;8206;51.440;6.914;2023-06-22T01:13:44;20.80;99.90
16198;DHT22;8206;51.440;6.914;2023-06-22T01:16:16;20.90;99.90
16198;DHT22;8206;51.440;6.914;2023-06-22T01:18:47;20.90;99.90
16198;DHT22;8206;51.440;6.914;2023-06-22T01:21:18;20.90;99.90
16198;DHT22;8206;51.440;6.914;2023-06-22T01:23:55;20.90;99.90
16198;DHT22;8206;51.440;6.914;2023-06-22T01:26:31;20.80;99.90
16198;DHT22;8206;51.440;6.914;2023-06-22T01:29:04;20.80;99.90
16198;DHT22;8206;51.440;6.914;2023-06-22T01:31:31;20.80;99.90
16198;DHT22;8206;51.440;6.914;2023-06-22T01:34:02;20.80;99.90
16198;DHT22;8206;51.440;6.914;2023-06-22T01:36:30;20.70;99.90
16198;DHT22;8206;51.440;6.914;2023-06-22T01:38:57;20.70;99.90
16198;DHT22;8206;51.440;6.914;2023-06-22T01:41:26;20.60;99.90
16198;DHT22;8206;51.440;6.914;2023-06-22T01:43:55;20.60;99.90
16198;DHT22;8206;51.440;6.914;2023-06-22T01:46:24;20.60;99.90
16198;DHT22;8206;51.440;6.914;2023-06-22T01:48:51;20.60;99.90
16198;DHT22;8206;51.440;6.914;2023-06-22T01:51:18;20.60;99.90
16198;DHT22;8206;51.440;6.914;2023-06-22T01:53:45;20.50;99.90
16198;DHT22;8206;51.440;6.914;2023-06-22T01:56:13;20.50;99.90
16198;DHT22;8206;51.440;6.914;2023-06-22T01:58:48;20.50;99.90
16198;DHT22;8206;51.440;6.914;2023-06-22T02:01:22;20.60;99.90
16198;DHT22;8206;51.440;6.914;2023-06-22T02:03:57;20.60;99.90
16198;DHT22;8206;51.440;6.914;2023-06-22T02:06:30;20.50;99.90
16198;DHT22;8206;51.440;6.914;2023-06-22T02:09:02;20.50;99.90
16198;DHT22;8206;51.440;6.914;2023-06-22T02:11:31;20.50;99.90
16198;DHT22;8206;51.440;6.914;2023-06-22T02:13:59;20.50;99.90
16198;DHT22;8206;51.440;6.914;2023-06-22T02:16:27;20.40;99.90
16198;DHT22;8206;51.440;6.914;2023-06-22T02:18:56;20.40;99.90
16198;DHT22;8206;51.440;6.914;2023-06-22T02:21:28;20.40;99.90
16198;DHT22;8206;51.440;6.914;2023-06-22T02:23:55;20.40;99.90
16198;DHT22;8206;51.440;6.914;2023-06-22T02:26:22;20.40;99.90
16198;DHT22;8206;51.440;6.914;2023-06-22T02:28:50;20.30;99.90
16198;DHT22;8206;51.440;6.914;2023-06-22T02:31:17;20.30;99.90
16198;DHT22;8206;51.440;6.914;2023-06-22T02:33:43;20.30;99.90
16198;DHT22;8206;51.440;6.914;2023-06-22T02:36:12;20.30;99.90
16198;DHT22;8206;51.440;6.914;2023-06-22T02:38:38;20.40;99.90
16198;DHT22;8206;51.440;6.914;2023-06-22T02:41:14;20.40;99.90
16198;DHT22;8206;51.440;6.914;2023-06-22T02:43:44;20.30;99.90
16198;DHT22;8206;51.440;6.914;2023-06-22T02:46:11;20.30;99.90
16198;DHT22;8206;51.440;6.914;2023-06-22T02:48:38;20.20;99.90
16198;DHT22;8206;51.440;6.914;2023-06-22T02:51:05;20.20;99.90
16198;DHT22;8206;51.440;6.914;2023-06-22T02:53:33;20.20;99.90
16198;DHT22;8206;51.440;6.914;2023-06-22T02:56:01;20.20;99.90
16198;DHT22;8206;51.440;6.914;2023-06-22T02:58:28;20.10;99.90
16198;DHT22;8206;51.440;6.914;2023-06-22T03:00:55;20.10;99.90
16198;DHT22;8206;51.440;6.914;2023-06-22T03:03:22;20.10;99.90
16198;DHT22;8206;51.440;6.914;2023-06-22T03:05:51;20.10;99.90
16198;DHT22;8206;51.440;6.914;2023-06-22T03:08:18;20.00;99.90
16198;DHT22;8206;51.440;6.914;2023-06-22T03:10:46;20.00;99.90
16198;DHT22;8206;51.440;6.914;2023-06-22T03:13:13;20.00;99.90
16198;DHT22;8206;51.440;6.914;2023-06-22T03:15:39;20.00;99.90
16198;DHT22;8206;51.440;6.914;2023-06-22T03:18:06;20.00;99.90
16198;DHT22;8206;51.440;6.914;2023-06-22T03:20:33;20.00;99.90
16198;DHT22;8206;51.440;6.914;2023-06-22T03:22:59;19.90;99.90
16198;DHT22;8206;51.440;6.914;2023-06-22T03:25:26;19.90;99.90
16198;DHT22;8206;51.440;6.914;2023-06-22T03:27:54;19.90;99.90
16198;DHT22;8206;51.440;6.914;2023-06-22T03:30:21;19.90;99.90
16198;DHT22;8206;51.440;6.914;2023-06-22T03:32:47;19.90;99.90
16198;DHT22;8206;51.440;6.914;2023-06-22T03:35:14;19.80;99.90
16198;DHT22;8206;51.440;6.914;2023-06-22T03:37:41;19.80;99.90
16198;DHT22;8206;51.440;6.914;2023-06-22T03:40:08;19.80;99.90
16198;DHT22;8206;51.440;6.914;2023-06-22T03:42:35;19.90;99.90
16198;DHT22;8206;51.440;6.914;2023-06-22T03:45:04;19.90;99.90
16198;DHT22;8206;51.440;6.914;2023-06-22T03:47:32;19.90;99.90
16198;DHT22;8206;51.440;6.914;2023-06-22T03:49:59;19.90;99.90
16198;DHT22;8206;51.440;6.914;2023-06-22T03:52:25;20.00;99.90
16198;DHT22;8206;51.440;6.914;2023-06-22T03:54:52;19.90;99.90
16198;DHT22;8206;51.440;6.914;2023-06-22T03:57:19;20.00;99.90
16198;DHT22;8206;51.440;6.914;2023-06-22T03:59:45;20.10;99.90
16198;DHT22;8206;51.440;6.914;2023-06-22T04:02:13;20.20;99.90
16198;DHT22;8206;51.440;6.914;2023-06-22T04:04:40;20.30;99.90
16198;DHT22;8206;51.440;6.914;2023-06-22T04:07:07;20.50;99.90
16198;DHT22;8206;51.440;6.914;2023-06-22T04:09:34;20.70;99.90
16198;DHT22;8206;51.440;6.914;2023-06-22T04:12:01;20.80;99.90
16198;DHT22;8206;51.440;6.914;2023-06-22T04:14:28;20.90;99.90
16198;DHT22;8206;51.440;6.914;2023-06-22T04:16:54;20.80;99.90
16198;DHT22;8206;51.440;6.914;2023-06-22T04:19:22;20.70;99.90
16198;DHT22;8206;51.440;6.914;2023-06-22T04:21:49;20.70;99.90
16198;DHT22;8206;51.440;6.914;2023-06-22T04:24:16;20.70;99.90
16198;DHT22;8206;51.440;6.914;2023-06-22T04:26:42;20.70;99.90
16198;DHT22;8206;51.440;6.914;2023-06-22T04:29:11;20.70;99.90
16198;DHT22;8206;51.440;6.914;2023-06-22T04:31:38;20.80;99.90
16198;DHT22;8206;51.440;6.914;2023-06-22T04:34:06;20.90;99.90
16198;DHT22;8206;51.440;6.914;2023-06-22T04:36:39;20.90;99.90
16198;DHT22;8206;51.440;6.914;2023-06-22T04:39:07;20.90;99.90
16198;DHT22;8206;51.440;6.914;2023-06-22T04:41:35;20.80;99.90
16198;DHT22;8206;51.440;6.914;2023-06-22T04:44:08;20.80;99.90
16198;DHT22;8206;51.440;6.914;2023-06-22T04:46:34;20.80;99.90
16198;DHT22;8206;51.440;6.914;2023-06-22T04:49:04;20.70;99.90
16198;DHT22;8206;51.440;6.914;2023-06-22T04:51:38;20.60;99.90
16198;DHT22;8206;51.440;6.914;2023-06-22T04:54:05;20.60;99.90
16198;DHT22;8206;51.440;6.914;2023-06-22T04:56:32;20.50;99.90
16198;DHT22;8206;51.440;6.914;2023-06-22T04:58:59;20.50;99.90
16198;DHT22;8206;51.440;6.914;2023-06-22T05:01:26;20.40;99.90
16198;DHT22;8206;51.440;6.914;2023-06-22T05:03:52;20.40;99.90
16198;DHT22;8206;51.440;6.914;2023-06-22T05:06:21;20.40;99.90
16198;DHT22;8206;51.440;6.914;2023-06-22T05:08:51;20.40;99.90
16198;DHT22;8206;51.440;6.914;2023-06-22T05:11:17;20.40;99.90
16198;DHT22;8206;51.440;6.914;2023-06-22T05:13:44;20.40;99.90
16198;DHT22;8206;51.440;6.914;2023-06-22T05:16:11;20.40;99.90
16198;DHT22;8206;51.440;6.914;2023-06-22T05:18:37;20.40;99.90
16198;DHT22;8206;51.440;6.914;2023-06-22T05:21:04;20.40;99.90
16198;DHT22;8206;51.440;6.914;2023-06-22T05:23:31;20.40;99.90
16198;DHT22;8206;51.440;6.914;2023-06-22T05:25:59;20.40;99.90
16198;DHT22;8206;51.440;6.914;2023-06-22T05:28:26;20.40;99.90
16198;DHT22;8206;51.440;6.914;2023-06-22T05:30:52;20.40;99.90
16198;DHT22;8206;51.440;6.914;2023-06-22T05:33:19;20.40;99.90
16198;DHT22;8206;51.440;6.914;2023-06-22T05:35:46;20.40;99.90
16198;DHT22;8206;51.440;6.914;2023-06-22T05:38:12;20.40;99.90
16198;DHT22;8206;51.440;6.914;2023-06-22T05:40:39;20.30;99.90
16198;DHT22;8206;51.440;6.914;2023-06-22T05:43:07;20.20;99.90
16198;DHT22;8206;51.440;6.914;2023-06-22T05:45:34;20.20;99.90
16198;DHT22;8206;51.440;6.914;2023-06-22T05:48:00;20.20;99.90
16198;DHT22;8206;51.440;6.914;2023-06-22T05:50:27;20.20;99.90
16198;DHT22;8206;51.440;6.914;2023-06-22T05:52:54;20.20;99.90
16198;DHT22;8206;51.440;6.914;2023-06-22T05:55:21;20.20;99.90
16198;DHT22;8206;51.440;6.914;2023-06-22T05:57:47;20.20;99.90
16198;DHT22;8206;51.440;6.914;2023-06-22T06:00:16;20.10;99.90
16198;DHT22;8206;51.440;6.914;2023-06-22T06:02:43;20.10;99.90
16198;DHT22;8206;51.440;6.914;2023-06-22T06:05:10;20.10;99.90
16198;DHT22;8206;51.440;6.914;2023-06-22T06:07:39;20.10;99.90
16198;DHT22;8206;51.440;6.914;2023-06-22T06:10:07;20.10;99.90
16198;DHT22;8206;51.440;6.914;2023-06-22T06:12:33;20.00;99.90
16198;DHT22;8206;51.440;6.914;2023-06-22T06:15:00;20.10;99.90
16198;DHT22;8206;51.440;6.914;2023-06-22T06:17:28;20.00;99.90
16198;DHT22;8206;51.440;6.914;2023-06-22T06:19:55;20.00;99.90
16198;DHT22;8206;51.440;6.914;2023-06-22T06:22:22;20.00;99.90
16198;DHT22;8206;51.440;6.914;2023-06-22T06:24:49;20.00;99.90
16198;DHT22;8206;51.440;6.914;2023-06-22T06:27:16;20.00;99.90
16198;DHT22;8206;51.440;6.914;2023-06-22T06:29:44;20.10;99.90
16198;DHT22;8206;51.440;6.914;2023-06-22T06:32:13;20.10;99.90
16198;DHT22;8206;51.440;6.914;2023-06-22T06:34:42;20.10;1.00
16198;DHT22;8206;51.440;6.914;2023-06-22T06:37:08;20.20;99.90
16198;DHT22;8206;51.440;6.914;2023-06-22T06:39:35;20.30;99.90
16198;DHT22;8206;51.440;6.914;2023-06-22T06:42:04;20.30;99.90
16198;DHT22;8206;51.440;6.914;2023-06-22T06:44:30;20.40;99.90
16198;DHT22;8206;51.440;6.914;2023-06-22T06:46:57;20.50;99.90
16198;DHT22;8206;51.440;6.914;2023-06-22T06:49:24;20.60;99.90
16198;DHT22;8206;51.440;6.914;2023-06-22T06:51:52;20.70;99.90
16198;DHT22;8206;51.440;6.914;2023-06-22T06:54:18;20.80;99.90
16198;DHT22;8206;51.440;6.914;2023-06-22T06:56:46;20.80;99.90
16198;DHT22;8206;51.440;6.914;2023-06-22T06:59:13;20.80;99.90
16198;DHT22;8206;51.440;6.914;2023-06-22T07:01:40;20.80;99.90
16198;DHT22;8206;51.440;6.914;2023-06-22T07:04:07;20.80;99.90
16198;DHT22;8206;51.440;6.914;2023-06-22T07:06:34;20.90;99.90
16198;DHT22;8206;51.440;6.914;2023-06-22T07:09:02;20.90;99.90
16198;DHT22;8206;51.440;6.914;2023-06-22T07:11:29;20.90;99.90
16198;DHT22;8206;51.440;6.914;2023-06-22T07:13:55;20.90;99.90
16198;DHT22;8206;51.440;6.914;2023-06-22T07:16:22;21.00;99.90
16198;DHT22;8206;51.440;6.914;2023-06-22T07:18:51;21.00;99.90
16198;DHT22;8206;51.440;6.914;2023-06-22T07:21:17;21.00;99.90
16198;DHT22;8206;51.440;6.914;2023-06-22T07:23:44;21.10;99.90
16198;DHT22;8206;51.440;6.914;2023-06-22T07:26:12;21.00;99.90
16198;DHT22;8206;51.440;6.914;2023-06-22T07:28:39;21.10;99.90
16198;DHT22;8206;51.440;6.914;2023-06-22T07:31:06;21.20;99.90
16198;DHT22;8206;51.440;6.914;2023-06-22T07:33:33;21.20;99.90
16198;DHT22;8206;51.440;6.914;2023-06-22T07:36:00;21.20;99.90
16198;DHT22;8206;51.440;6.914;2023-06-22T07:38:28;21.20;99.90
16198;DHT22;8206;51.440;6.914;2023-06-22T07:40:54;21.20;99.90
16198;DHT22;8206;51.440;6.914;2023-06-22T07:43:22;21.30;99.90
16198;DHT22;8206;51.440;6.914;2023-06-22T07:45:49;21.40;99.90
16198;DHT22;8206;51.440;6.914;2023-06-22T07:48:20;21.50;99.90
16198;DHT22;8206;51.440;6.914;2023-06-22T07:50:47;21.50;99.90
16198;DHT22;8206;51.440;6.914;2023-06-22T07:53:14;21.50;99.90
16198;DHT22;8206;51.440;6.914;2023-06-22T07:55:41;21.50;99.90
16198;DHT22;8206;51.440;6.914;2023-06-22T07:58:08;21.60;99.90
16198;DHT22;8206;51.440;6.914;2023-06-22T08:00:36;21.60;99.90
16198;DHT22;8206;51.440;6.914;2023-06-22T08:03:02;21.70;99.90
16198;DHT22;8206;51.440;6.914;2023-06-22T08:05:30;21.80;99.90
16198;DHT22;8206;51.440;6.914;2023-06-22T08:07:57;21.90;99.90
16198;DHT22;8206;51.440;6.914;2023-06-22T08:10:24;21.90;99.90
16198;DHT22;8206;51.440;6.914;2023-06-22T08:12:51;21.90;99.90
16198;DHT22;8206;51.440;6.914;2023-06-22T08:15:18;21.80;99.90
16198;DHT22;8206;51.440;6.914;2023-06-22T08:17:46;21.80;99.90
16198;DHT22;8206;51.440;6.914;2023-06-22T08:20:13;21.70;99.90
16198;DHT22;8206;51.440;6.914;2023-06-22T08:22:40;21.80;99.90
16198;DHT22;8206;51.440;6.914;2023-06-22T08:25:08;21.80;99.90
16198;DHT22;8206;51.440;6.914;2023-06-22T08:27:35;21.90;99.90
16198;DHT22;8206;51.440;6.914;2023-06-22T08:30:02;22.00;99.90
16198;DHT22;8206;51.440;6.914;2023-06-22T08:32:29;22.00;99.90
16198;DHT22;8206;51.440;6.914;2023-06-22T08:34:59;22.10;99.90
16198;DHT22;8206;51.440;6.914;2023-06-22T08:37:26;22.20;99.90
16198;DHT22;8206;51.440;6.914;2023-06-22T08:39:56;22.20;99.90
16198;DHT22;8206;51.440;6.914;2023-06-22T08:42:23;22.30;99.90
16198;DHT22;8206;51.440;6.914;2023-06-22T08:44:51;22.30;99.90
16198;DHT22;8206;51.440;6.914;2023-06-22T08:47:18;22.30;99.90
16198;DHT22;8206;51.440;6.914;2023-06-22T08:49:44;22.40;99.90
16198;DHT22;8206;51.440;6.914;2023-06-22T08:52:13;22.40;99.90
16198;DHT22;8206;51.440;6.914;2023-06-22T08:54:39;22.50;99.90
16198;DHT22;8206;51.440;6.914;2023-06-22T08:57:06;22.40;99.90
16198;DHT22;8206;51.440;6.914;2023-06-22T08:59:33;22.40;99.90
16198;DHT22;8206;51.440;6.914;2023-06-22T09:02:00;22.40;99.90
16198;DHT22;8206;51.440;6.914;2023-06-22T09:04:26;22.30;99.90
16198;DHT22;8206;51.440;6.914;2023-06-22T09:06:53;22.30;99.90
16198;DHT22;8206;51.440;6.914;2023-06-22T09:09:21;22.30;99.90
16198;DHT22;8206;51.440;6.914;2023-06-22T09:11:48;22.30;99.90
16198;DHT22;8206;51.440;6.914;2023-06-22T09:14:15;22.50;99.90
16198;DHT22;8206;51.440;6.914;2023-06-22T09:16:41;22.60;99.90
16198;DHT22;8206;51.440;6.914;2023-06-22T09:19:08;22.60;99.90
16198;DHT22;8206;51.440;6.914;2023-06-22T09:21:35;22.80;99.90
16198;DHT22;8206;51.440;6.914;2023-06-22T09:24:01;23.00;99.90
16198;DHT22;8206;51.440;6.914;2023-06-22T09:26:29;23.20;99.90
16198;DHT22;8206;51.440;6.914;2023-06-22T09:28:56;23.50;99.90
16198;DHT22;8206;51.440;6.914;2023-06-22T09:31:23;23.60;99.90
16198;DHT22;8206;51.440;6.914;2023-06-22T09:33:51;23.80;99.90
16198;DHT22;8206;51.440;6.914;2023-06-22T09:36:18;24.10;99.90
16198;DHT22;8206;51.440;6.914;2023-06-22T09:38:45;24.30;99.90
16198;DHT22;8206;51.440;6.914;2023-06-22T09:41:12;24.90;99.90
16198;DHT22;8206;51.440;6.914;2023-06-22T09:43:40;25.30;99.90
16198;DHT22;8206;51.440;6.914;2023-06-22T09:46:06;25.40;99.90
16198;DHT22;8206;51.440;6.914;2023-06-22T09:48:34;25.20;99.90
16198;DHT22;8206;51.440;6.914;2023-06-22T09:51:01;25.00;99.90
16198;DHT22;8206;51.440;6.914;2023-06-22T09:53:28;24.80;99.90
16198;DHT22;8206;51.440;6.914;2023-06-22T09:55:55;24.70;99.90
16198;DHT22;8206;51.440;6.914;2023-06-22T09:58:22;24.90;99.90
16198;DHT22;8206;51.440;6.914;2023-06-22T10:00:50;25.30;99.90
16198;DHT22;8206;51.440;6.914;2023-06-22T10:03:18;25.60;99.90
16198;DHT22;8206;51.440;6.914;2023-06-22T10:05:45;26.00;99.90
16198;DHT22;8206;51.440;6.914;2023-06-22T10:08:11;26.50;99.90
16198;DHT22;8206;51.440;6.914;2023-06-22T10:10:38;26.50;99.90
16198;DHT22;8206;51.440;6.914;2023-06-22T10:13:09;26.50;99.90
16198;DHT22;8206;51.440;6.914;2023-06-22T10:15:36;26.70;99.90
16198;DHT22;8206;51.440;6.914;2023-06-22T10:18:04;26.70;99.90
16198;DHT22;8206;51.440;6.914;2023-06-22T10:20:31;27.10;99.90
16198;DHT22;8206;51.440;6.914;2023-06-22T10:22:58;27.10;99.90
16198;DHT22;8206;51.440;6.914;2023-06-22T10:25:25;27.20;99.90
16198;DHT22;8206;51.440;6.914;2023-06-22T10:27:51;27.30;99.90
16198;DHT22;8206;51.440;6.914;2023-06-22T10:30:18;27.70;99.90
16198;DHT22;8206;51.440;6.914;2023-06-22T10:32:45;28.00;99.90
16198;DHT22;8206;51.440;6.914;2023-06-22T10:35:13;28.20;99.90
16198;DHT22;8206;51.440;6.914;2023-06-22T10:37:42;28.10;99.90
16198;DHT22;8206;51.440;6.914;2023-06-22T10:40:09;28.10;99.90
16198;DHT22;8206;51.440;6.914;2023-06-22T10:42:36;28.10;99.90
16198;DHT22;8206;51.440;6.914;2023-06-22T10:45:03;27.70;99.90
16198;DHT22;8206;51.440;6.914;2023-06-22T10:47:30;27.60;99.90
16198;DHT22;8206;51.440;6.914;2023-06-22T10:49:57;27.40;99.90
16198;DHT22;8206;51.440;6.914;2023-06-22T10:52:25;27.20;99.90
16198;DHT22;8206;51.440;6.914;2023-06-22T10:54:51;27.10;99.90
16198;DHT22;8206;51.440;6.914;2023-06-22T10:57:19;27.00;99.90
16198;DHT22;8206;51.440;6.914;2023-06-22T10:59:45;26.80;99.90
16198;DHT22;8206;51.440;6.914;2023-06-22T11:02:12;26.40;99.90
16198;DHT22;8206;51.440;6.914;2023-06-22T11:04:39;26.10;99.90
16198;DHT22;8206;51.440;6.914;2023-06-22T11:07:06;25.90;99.90
16198;DHT22;8206;51.440;6.914;2023-06-22T11:09:34;25.70;99.90
16198;DHT22;8206;51.440;6.914;2023-06-22T11:12:00;25.60;99.90
16198;DHT22;8206;51.440;6.914;2023-06-22T11:14:27;25.50;99.90
16198;DHT22;8206;51.440;6.914;2023-06-22T11:16:55;25.50;99.90
16198;DHT22;8206;51.440;6.914;2023-06-22T11:19:21;25.40;99.90
16198;DHT22;8206;51.440;6.914;2023-06-22T11:21:48;25.30;99.90
16198;DHT22;8206;51.440;6.914;2023-06-22T11:24:15;25.20;99.90
16198;DHT22;8206;51.440;6.914;2023-06-22T11:26:44;25.00;99.90
16198;DHT22;8206;51.440;6.914;2023-06-22T11:29:10;24.90;99.90
16198;DHT22;8206;51.440;6.914;2023-06-22T11:31:37;24.80;99.90
16198;DHT22;8206;51.440;6.914;2023-06-22T11:34:04;24.80;99.90
16198;DHT22;8206;51.440;6.914;2023-06-22T11:36:31;24.70;99.90
16198;DHT22;8206;51.440;6.914;2023-06-22T11:38:58;24.50;99.90
16198;DHT22;8206;51.440;6.914;2023-06-22T11:41:25;24.40;99.90
16198;DHT22;8206;51.440;6.914;2023-06-22T11:43:53;24.20;99.90
16198;DHT22;8206;51.440;6.914;2023-06-22T11:46:20;24.10;99.90
16198;DHT22;8206;51.440;6.914;2023-06-22T11:48:46;23.90;99.90
16198;DHT22;8206;51.440;6.914;2023-06-22T11:51:13;23.80;99.90
16198;DHT22;8206;51.440;6.914;2023-06-22T11:53:40;23.70;99.90
16198;DHT22;8206;51.440;6.914;2023-06-22T11:56:06;23.50;99.90
16198;DHT22;8206;51.440;6.914;2023-06-22T11:58:33;23.40;99.90
16198;DHT22;8206;51.440;6.914;2023-06-22T12:01:01;23.20;99.90
16198;DHT22;8206;51.440;6.914;2023-06-22T12:03:28;23.10;99.90
16198;DHT22;8206;51.440;6.914;2023-06-22T12:05:55;22.90;99.90
16198;DHT22;8206;51.440;6.914;2023-06-22T12:08:22;22.80;99.90
16198;DHT22;8206;51.440;6.914;2023-06-22T12:10:50;22.70;1.00
16198;DHT22;8206;51.440;6.914;2023-06-22T12:13:17;22.70;1.00
16198;DHT22;8206;51.440;6.914;2023-06-22T12:15:44;22.50;1.00
16198;DHT22;8206;51.440;6.914;2023-06-22T12:18:12;22.40;1.00
16198;DHT22;8206;51.440;6.914;2023-06-22T12:20:39;22.20;1.00
16198;DHT22;8206;51.440;6.914;2023-06-22T12:23:06;22.00;1.00
16198;DHT22;8206;51.440;6.914;2023-06-22T12:25:33;21.90;1.00
16198;DHT22;8206;51.440;6.914;2023-06-22T12:28:00;22.00;1.00
16198;DHT22;8206;51.440;6.914;2023-06-22T12:30:26;22.10;1.00
16198;DHT22;8206;51.440;6.914;2023-06-22T12:32:53;22.10;1.00
16198;DHT22;8206;51.440;6.914;2023-06-22T12:35:21;22.30;1.00
16198;DHT22;8206;51.440;6.914;2023-06-22T12:37:47;22.70;1.00
16198;DHT22;8206;51.440;6.914;2023-06-22T12:40:14;23.10;1.00
16198;DHT22;8206;51.440;6.914;2023-06-22T12:42:41;23.40;1.00
16198;DHT22;8206;51.440;6.914;2023-06-22T12:45:09;23.80;1.00
16198;DHT22;8206;51.440;6.914;2023-06-22T12:47:35;24.00;99.90
16198;DHT22;8206;51.440;6.914;2023-06-22T12:50:03;23.80;99.90
16198;DHT22;8206;51.440;6.914;2023-06-22T12:52:31;23.80;99.90
16198;DHT22;8206;51.440;6.914;2023-06-22T12:54:58;23.80;99.90
16198;DHT22;8206;51.440;6.914;2023-06-22T12:57:25;23.70;99.90
16198;DHT22;8206;51.440;6.914;2023-06-22T12:59:51;23.60;99.90
16198;DHT22;8206;51.440;6.914;2023-06-22T13:02:18;23.40;1.00
16198;DHT22;8206;51.440;6.914;2023-06-22T13:04:45;23.20;1.00
16198;DHT22;8206;51.440;6.914;2023-06-22T13:07:11;23.00;1.00
16198;DHT22;8206;51.440;6.914;2023-06-22T13:09:39;22.90;1.00
16198;DHT22;8206;51.440;6.914;2023-06-22T13:12:07;22.80;1.00
16198;DHT22;8206;51.440;6.914;2023-06-22T13:14:34;22.90;1.00
16198;DHT22;8206;51.440;6.914;2023-06-22T13:17:00;22.90;1.00
16198;DHT22;8206;51.440;6.914;2023-06-22T13:19:27;23.00;1.00
16198;DHT22;8206;51.440;6.914;2023-06-22T13:21:57;23.10;1.00
16198;DHT22;8206;51.440;6.914;2023-06-22T13:24:24;23.20;1.00
16198;DHT22;8206;51.440;6.914;2023-06-22T13:26:52;23.20;1.00
16198;DHT22;8206;51.440;6.914;2023-06-22T13:29:19;23.10;1.00
16198;DHT22;8206;51.440;6.914;2023-06-22T13:31:45;23.10;1.00
16198;DHT22;8206;51.440;6.914;2023-06-22T13:34:12;23.10;1.00
16198;DHT22;8206;51.440;6.914;2023-06-22T13:36:39;23.20;1.00
16198;DHT22;8206;51.440;6.914;2023-06-22T13:39:05;23.10;1.00
16198;DHT22;8206;51.440;6.914;2023-06-22T13:41:32;23.10;1.00
16198;DHT22;8206;51.440;6.914;2023-06-22T13:44:00;23.20;1.00
16198;DHT22;8206;51.440;6.914;2023-06-22T13:46:27;23.30;1.00
16198;DHT22;8206;51.440;6.914;2023-06-22T13:48:54;23.30;1.00
16198;DHT22;8206;51.440;6.914;2023-06-22T13:51:21;23.60;1.00
16198;DHT22;8206;51.440;6.914;2023-06-22T13:53:47;24.00;1.00
16198;DHT22;8206;51.440;6.914;2023-06-22T13:56:14;24.20;99.90
16198;DHT22;8206;51.440;6.914;2023-06-22T13:58:41;24.20;99.90
16198;DHT22;8206;51.440;6.914;2023-06-22T14:01:10;24.30;99.90
16198;DHT22;8206;51.440;6.914;2023-06-22T14:03:37;24.20;99.90
16198;DHT22;8206;51.440;6.914;2023-06-22T14:06:03;24.30;99.90
16198;DHT22;8206;51.440;6.914;2023-06-22T14:08:30;24.20;99.90
16198;DHT22;8206;51.440;6.914;2023-06-22T14:10:57;24.10;99.90
16198;DHT22;8206;51.440;6.914;2023-06-22T14:13:23;23.90;99.90
16198;DHT22;8206;51.440;6.914;2023-06-22T14:15:50;23.70;99.90
16198;DHT22;8206;51.440;6.914;2023-06-22T14:18:19;23.50;1.00
16198;DHT22;8206;51.440;6.914;2023-06-22T14:20:48;23.30;1.00
16198;DHT22;8206;51.440;6.914;2023-06-22T14:23:14;23.30;1.00
16198;DHT22;8206;51.440;6.914;2023-06-22T14:25:41;23.10;1.00
16198;DHT22;8206;51.440;6.914;2023-06-22T14:28:08;23.10;1.00
16198;DHT22;8206;51.440;6.914;2023-06-22T14:30:34;23.20;1.00
16198;DHT22;8206;51.440;6.914;2023-06-22T14:33:01;23.30;1.00
16198;DHT22;8206;51.440;6.914;2023-06-22T14:35:29;23.30;1.00
16198;DHT22;8206;51.440;6.914;2023-06-22T14:37:56;23.40;1.00
16198;DHT22;8206;51.440;6.914;2023-06-22T14:40:22;23.40;1.00
16198;DHT22;8206;51.440;6.914;2023-06-22T14:42:49;23.40;1.00
16198;DHT22;8206;51.440;6.914;2023-06-22T14:45:15;23.40;1.00
16198;DHT22;8206;51.440;6.914;2023-06-22T14:47:42;23.30;1.00
16198;DHT22;8206;51.440;6.914;2023-06-22T14:50:09;23.20;1.00
16198;DHT22;8206;51.440;6.914;2023-06-22T14:52:37;23.20;1.00
16198;DHT22;8206;51.440;6.914;2023-06-22T14:55:05;23.40;1.00
16198;DHT22;8206;51.440;6.914;2023-06-22T14:57:31;23.40;1.00
16198;DHT22;8206;51.440;6.914;2023-06-22T14:59:58;23.40;1.00
16198;DHT22;8206;51.440;6.914;2023-06-22T15:02:26;23.30;1.00
16198;DHT22;8206;51.440;6.914;2023-06-22T15:04:53;23.20;1.00
16198;DHT22;8206;51.440;6.914;2023-06-22T15:07:20;23.20;1.00
16198;DHT22;8206;51.440;6.914;2023-06-22T15:09:48;23.40;1.00
16198;DHT22;8206;51.440;6.914;2023-06-22T15:12:15;23.10;1.00
16198;DHT22;8206;51.440;6.914;2023-06-22T15:14:41;22.70;1.00
16198;DHT22;8206;51.440;6.914;2023-06-22T15:17:08;22.60;1.00
16198;DHT22;8206;51.440;6.914;2023-06-22T15:19:35;22.50;1.00
16198;DHT22;8206;51.440;6.914;2023-06-22T15:22:04;22.30;1.00
16198;DHT22;8206;51.440;6.914;2023-06-22T15:24:31;22.20;1.00
16198;DHT22;8206;51.440;6.914;2023-06-22T15:26:59;22.20;1.00
16198;DHT22;8206;51.440;6.914;2023-06-22T15:29:25;22.10;1.00
16198;DHT22;8206;51.440;6.914;2023-06-22T15:31:52;22.20;1.00
16198;DHT22;8206;51.440;6.914;2023-06-22T15:34:19;22.20;1.00
16198;DHT22;8206;51.440;6.914;2023-06-22T15:36:46;22.30;1.00
16198;DHT22;8206;51.440;6.914;2023-06-22T15:39:13;22.30;1.00
16198;DHT22;8206;51.440;6.914;2023-06-22T15:41:40;22.50;1.00
16198;DHT22;8206;51.440;6.914;2023-06-22T15:44:09;22.70;1.00
16198;DHT22;8206;51.440;6.914;2023-06-22T15:46:35;22.70;1.00
16198;DHT22;8206;51.440;6.914;2023-06-22T15:49:02;22.60;1.00
16198;DHT22;8206;51.440;6.914;2023-06-22T15:51:29;22.50;1.00